Time;durP1;ratioP1;P1;durP2;ratioP2;P2;SDS_P1;SDS_P2;PMS_P1;PMS_P2;Temp;Humidity;BMP_temperature;BMP_pressure;BME280_temperature;BME280_humidity;BME280_pressure;Samples;Min_cycle;Max_cycle;Signal;HPM_P1;HPM_P2
2021/07/23 00:00:15;;;;;;;19.55;9.48;;;;;;;24.31;66.69;100601.78;5035135;28;20060;-76
2021/07/23 00:03:20;;;;;;;12.63;9.88;;;;;;;24.22;66.89;100594.84;5035400;28;20049;-76
2021/07/23 00:06:24;;;;;;;15.90;10.23;;;;;;;24.22;67.29;100599.53;5034741;28;20068;-75
2021/07/23 00:09:29;;;;;;;14.70;10.43;;;;;;;24.09;67.42;100591.34;5035235;28;20045;-75
2021/07/23 00:12:33;;;;;;;14.68;10.05;;;;;;;24.17;67.39;100585.59;5035299;28;20048;-76
2021/07/23 00:15:38;;;;;;;14.07;9.68;;;;;;;24.16;67.46;100582.00;5035081;28;20507;-75
2021/07/23 00:18:42;;;;;;;15.90;10.55;;;;;;;24.26;67.48;100579.66;5035352;28;20056;-74
2021/07/23 00:21:47;;;;;;;13.75;10.10;;;;;;;24.08;67.77;100584.16;5034814;28;20113;-75
2021/07/23 00:24:52;;;;;;;12.98;10.68;;;;;;;24.20;67.79;100574.19;5035039;28;20060;-74
2021/07/23 00:27:56;;;;;;;14.63;9.73;;;;;;;24.07;67.93;100582.44;5035352;28;20044;-76
2021/07/23 00:31:00;;;;;;;16.70;10.77;;;;;;;24.19;67.92;100578.00;5034202;28;20052;-76
2021/07/23 00:34:04;;;;;;;11.98;9.38;;;;;;;24.28;67.30;100568.44;5035042;28;20059;-74
2021/07/23 00:37:11;;;;;;;13.00;9.63;;;;;;;24.36;67.27;100573.69;5035553;28;20384;-74
2021/07/23 00:40:18;;;;;;;15.63;10.10;;;;;;;24.38;66.57;100572.41;5035257;28;20052;-74
2021/07/23 00:43:27;;;;;;;14.50;10.52;;;;;;;24.32;66.88;100573.28;5035089;28;20057;-74
2021/07/23 00:46:36;;;;;;;13.73;10.43;;;;;;;24.38;67.24;100566.94;5033648;28;20045;-75
2021/07/23 00:49:42;;;;;;;15.18;11.00;;;;;;;24.33;67.11;100561.25;5035057;28;20061;-75
2021/07/23 00:52:49;;;;;;;13.23;10.23;;;;;;;24.37;66.77;100556.16;5034302;28;20064;-74
2021/07/23 00:56:00;;;;;;;14.93;10.25;;;;;;;24.28;67.37;100557.47;5034789;28;20041;-75
2021/07/23 00:59:05;;;;;;;15.68;10.32;;;;;;;24.13;67.81;100560.50;5034924;28;20476;-74
2021/07/23 01:02:11;;;;;;;11.95;9.32;;;;;;;24.09;67.38;100556.53;5033705;28;20049;-76
2021/07/23 01:05:16;;;;;;;12.48;9.82;;;;;;;24.05;67.82;100554.41;5034176;28;20048;-75
2021/07/23 01:08:20;;;;;;;15.88;10.20;;;;;;;23.97;68.00;100555.47;5049566;28;20044;-75
2021/07/23 01:11:25;;;;;;;12.88;8.95;;;;;;;24.05;67.78;100549.72;5053426;28;20048;-74
2021/07/23 01:14:49;;;;;;;12.17;9.47;;;;;;;24.05;68.04;100544.25;5052514;28;20076;-74
2021/07/23 01:17:54;;;;;;;14.85;9.95;;;;;;;24.02;67.84;100541.97;5053381;28;20044;-75
2021/07/23 01:21:00;;;;;;;16.25;10.15;;;;;;;24.09;67.50;100542.81;5053571;28;20052;-75
2021/07/23 01:24:05;;;;;;;11.48;8.82;;;;;;;24.05;67.29;100533.28;5053548;28;20063;-75
2021/07/23 01:27:25;;;;;;;14.15;8.80;;;;;;;23.99;67.45;100527.81;5053911;28;20056;-75
2021/07/23 01:30:38;;;;;;;12.85;9.57;;;;;;;24.04;67.63;100520.63;5054020;28;20494;-75
2021/07/23 01:33:51;;;;;;;12.10;9.75;;;;;;;23.95;67.49;100520.03;5053746;28;20068;-76
2021/07/23 01:36:55;;;;;;;11.63;9.02;;;;;;;23.98;67.44;100523.38;5053828;28;20052;-76
2021/07/23 01:40:01;;;;;;;16.20;9.43;;;;;;;24.08;67.23;100519.16;5053711;28;20499;-75
2021/07/23 01:43:06;;;;;;;17.83;9.18;;;;;;;23.93;67.43;100516.66;5053685;28;20048;-75
2021/07/23 01:46:11;;;;;;;13.63;8.48;;;;;;;24.03;67.20;100515.34;5053690;28;20056;-75
2021/07/23 01:49:21;;;;;;;11.98;10.00;;;;;;;24.09;66.74;100512.63;5053423;28;20064;-75
2021/07/23 01:52:26;;;;;;;13.68;10.68;;;;;;;24.15;66.19;100509.00;5053069;28;20053;-76
2021/07/23 01:55:31;;;;;;;17.20;10.90;;;;;;;24.14;66.29;100498.25;5053601;28;20499;-75
2021/07/23 01:58:36;;;;;;;17.25;10.55;;;;;;;24.07;66.43;100494.69;5052534;28;20515;-75
2021/07/23 02:01:42;;;;;;;13.05;10.07;;;;;;;24.10;66.03;100497.00;5053783;28;20068;-75
2021/07/23 02:04:59;;;;;;;12.27;9.10;;;;;;;24.13;65.51;100494.66;5052656;28;20049;-75
2021/07/23 02:08:04;;;;;;;15.55;9.73;;;;;;;24.19;65.54;100503.94;5053755;28;20432;-76
2021/07/23 02:11:11;;;;;;;11.82;9.57;;;;;;;24.19;66.08;100490.22;5052665;28;20495;-75
2021/07/23 02:14:17;;;;;;;12.93;8.73;;;;;;;24.17;66.18;100484.13;5041124;28;20060;-76
2021/07/23 02:17:23;;;;;;;15.15;9.93;;;;;;;24.20;65.75;100494.63;5053523;28;20052;-76
2021/07/23 02:20:29;;;;;;;13.38;9.80;;;;;;;24.09;66.39;100487.94;5052876;28;20052;-75
2021/07/23 02:23:34;;;;;;;10.88;9.75;;;;;;;24.04;66.92;100484.13;5053383;28;20056;-75
2021/07/23 02:26:38;;;;;;;11.32;9.40;;;;;;;24.04;67.10;100484.13;5056661;28;20059;-76
2021/07/23 02:29:43;;;;;;;15.35;8.85;;;;;;;24.07;67.56;100484.59;5056740;28;20048;-76
2021/07/23 02:32:47;;;;;;;12.95;8.90;;;;;;;24.12;66.61;100475.69;5056038;28;20056;-76
2021/07/23 02:35:51;;;;;;;19.20;9.52;;;;;;;23.97;67.26;100477.84;5056369;28;20059;-76
2021/07/23 02:38:56;;;;;;;11.75;9.65;;;;;;;23.89;67.77;100471.56;5057050;28;20108;-76
2021/07/23 02:42:01;;;;;;;14.10;11.10;;;;;;;23.79;68.32;100482.16;5056187;28;20052;-76
2021/07/23 02:45:11;;;;;;;12.30;10.77;;;;;;;23.72;68.52;100483.22;5056353;28;20044;-76
2021/07/23 02:48:16;;;;;;;20.95;13.68;;;;;;;23.57;69.07;100488.13;5056320;28;20049;-75
2021/07/23 02:51:20;;;;;;;15.82;14.13;;;;;;;23.42;70.42;100487.53;5079343;28;20049;-75
2021/07/23 02:54:26;;;;;;;25.35;16.05;;;;;;;23.14;70.92;100495.97;5056043;28;20049;-76
2021/07/23 02:57:30;;;;;;;16.10;13.57;;;;;;;23.18;70.96;100497.25;5055920;28;20049;-75
2021/07/23 03:00:36;;;;;;;19.25;13.88;;;;;;;23.14;70.59;100495.97;5056662;28;20388;-75
2021/07/23 03:03:41;;;;;;;16.92;14.02;;;;;;;22.95;71.26;100491.38;5056074;28;20045;-75
2021/07/23 03:06:46;;;;;;;18.50;14.60;;;;;;;22.95;71.49;100494.09;5055822;28;20037;-75
2021/07/23 03:09:50;;;;;;;19.92;14.95;;;;;;;22.89;71.92;100492.19;5055458;28;20041;-75
2021/07/23 03:12:55;;;;;;;17.88;14.30;;;;;;;22.90;71.40;100492.00;5055754;28;20049;-75
2021/07/23 03:16:00;;;;;;;17.10;15.27;;;;;;;22.83;71.46;100496.63;5056354;28;20045;-76
2021/07/23 03:19:05;;;;;;;17.10;14.73;;;;;;;22.89;71.69;100492.19;5055334;28;20057;-76
2021/07/23 03:22:10;;;;;;;20.08;14.35;;;;;;;22.89;71.82;100489.47;5056667;28;20052;-75
2021/07/23 03:25:19;;;;;;;16.15;14.45;;;;;;;22.83;71.45;100487.56;5055472;28;20392;-75
2021/07/23 03:28:39;;;;;;;19.80;14.25;;;;;;;22.76;71.85;100492.22;5056376;28;20045;-75
2021/07/23 03:31:53;;;;;;;;;;;;;;;22.76;71.94;100492.22;5055997;28;20380;-76
2021/07/23 03:35:01;;;;;;;16.88;13.68;;;;;;;22.75;72.04;100498.72;5055131;28;19917;-75
2021/07/23 03:38:13;;;;;;;14.40;12.82;;;;;;;22.73;71.86;100492.63;5054413;28;20041;-77
2021/07/23 03:41:17;;;;;;;16.08;13.63;;;;;;;22.75;71.97;100487.78;5055990;28;20057;-75
2021/07/23 03:44:22;;;;;;;15.63;14.13;;;;;;;22.73;72.17;100490.75;5043639;28;20041;-75
2021/07/23 03:47:29;;;;;;;19.58;14.55;;;;;;;22.72;71.95;100491.78;5054465;28;20053;-75
2021/07/23 03:50:35;;;;;;;18.52;14.38;;;;;;;22.69;71.85;100494.09;5056003;28;20128;-76
2021/07/23 03:53:41;;;;;;;16.48;13.43;;;;;;;22.72;71.63;100496.41;5054960;28;20053;-76
2021/07/23 03:56:57;;;;;;;20.10;14.50;;;;;;;22.59;72.47;100489.84;5043697;28;20133;-75
2021/07/23 04:00:02;;;;;;;17.38;13.60;;;;;;;22.71;72.01;100492.84;5055870;28;20385;-75
2021/07/23 04:03:12;;;;;;;17.40;14.48;;;;;;;22.66;71.55;100498.91;5055838;28;20048;-76
2021/07/23 04:06:16;;;;;;;14.75;13.07;;;;;;;22.50;72.69;100502.03;5055582;28;20383;-75
2021/07/23 04:09:20;;;;;;;15.57;12.82;;;;;;;22.56;72.88;100505.84;5055243;28;20040;-75
2021/07/23 04:12:25;;;;;;;20.20;15.30;;;;;;;22.56;72.76;100516.78;5043293;28;20128;-75
2021/07/23 04:15:30;;;;;;;17.33;14.93;;;;;;;22.61;72.83;100517.00;5054154;28;20045;-77
2021/07/23 04:18:48;;;;;;;25.45;15.00;;;;;;;22.44;73.63;100518.47;5054512;28;20041;-75
2021/07/23 04:22:03;;;;;;;20.83;16.23;;;;;;;22.45;73.58;100523.72;5044466;28;20045;-76
2021/07/23 04:25:40;;;;;;;26.88;17.40;;;;;;;22.53;73.65;100529.00;5051987;28;20041;-76
2021/07/23 04:28:47;;;;;;;19.23;16.92;;;;;;;22.56;73.72;100520.38;5041746;28;20045;-74
2021/07/23 04:31:51;;;;;;;24.00;17.90;;;;;;;22.62;73.79;100519.56;5053173;28;20041;-79
2021/07/23 04:34:56;;;;;;;21.55;15.88;;;;;;;22.73;73.56;100525.47;5053161;28;20049;-74
2021/07/23 04:38:02;;;;;;;18.63;16.73;;;;;;;23.06;72.00;100526.34;5052547;28;20510;-76
2021/07/23 04:41:23;;;;;;;19.50;16.52;;;;;;;23.14;71.64;100524.22;5049207;28;20037;-73
2021/07/23 04:44:33;;;;;;;17.40;14.63;;;;;;;23.35;70.45;100514.94;5021441;28;20045;-74
2021/07/23 04:47:37;;;;;;;20.25;16.05;;;;;;;23.36;70.45;100516.63;5032234;28;20065;-76
2021/07/23 04:50:44;;;;;;;19.00;15.05;;;;;;;23.40;70.42;100512.41;5021499;28;20073;-75
2021/07/23 04:54:14;;;;;;;15.88;14.20;;;;;;;23.63;69.23;100518.25;5032315;28;20049;-75
2021/07/23 04:57:43;;;;;;;23.73;20.95;;;;;;;23.76;68.56;100510.00;5032262;28;20457;-74
2021/07/23 05:00:48;;;;;;;18.48;14.32;;;;;;;24.19;67.31;100514.91;5033396;28;20393;-74
2021/07/23 05:03:52;;;;;;;15.88;13.20;;;;;;;24.49;65.47;100516.00;5034395;28;20049;-74
2021/07/23 05:06:56;;;;;;;16.52;13.35;;;;;;;24.82;65.04;100513.03;5034206;28;20391;-74
2021/07/23 05:10:03;;;;;;;16.38;13.00;;;;;;;25.17;64.06;100512.31;5034616;28;20045;-75
2021/07/23 05:13:10;;;;;;;19.02;12.40;;;;;;;25.44;62.66;100510.13;5034216;28;20104;-73
2021/07/23 05:16:15;;;;;;;15.85;13.52;;;;;;;25.73;62.14;100516.81;5034328;28;20468;-75
2021/07/23 05:19:20;;;;;;;26.95;13.93;;;;;;;26.15;61.01;100517.81;5053828;28;20045;-75
2021/07/23 05:22:24;;;;;;;19.50;12.63;;;;;;;26.57;59.75;100513.19;5053571;28;20392;-74
2021/07/23 05:25:30;;;;;;;17.13;12.18;;;;;;;26.99;57.97;100507.44;5053394;28;20053;-75
2021/07/23 05:28:35;;;;;;;13.77;12.15;;;;;;;27.51;56.78;100507.59;5035515;28;20392;-73
2021/07/23 05:31:40;;;;;;;15.23;12.02;;;;;;;27.90;55.40;100508.75;5033945;28;20041;-75
2021/07/23 05:34:44;;;;;;;14.88;12.50;;;;;;;28.07;54.44;100501.41;5039696;28;20040;-74
2021/07/23 05:37:48;;;;;;;15.95;12.75;;;;;;;28.41;54.49;100497.66;5053788;28;20049;-76
2021/07/23 05:40:53;;;;;;;17.15;11.35;;;;;;;28.62;53.41;100505.25;5053966;28;20037;-76
2021/07/23 05:43:57;;;;;;;13.25;11.82;;;;;;;28.67;53.90;100504.50;5053456;28;20154;-77
2021/07/23 05:47:02;;;;;;;16.50;12.60;;;;;;;29.43;51.79;100501.13;5053722;28;20037;-75
2021/07/23 05:50:06;;;;;;;16.58;12.55;;;;;;;30.11;49.87;100497.88;5053340;28;20045;-74
2021/07/23 05:53:11;;;;;;;19.90;11.90;;;;;;;31.20;47.36;100502.06;5051734;28;20041;-74
2021/07/23 05:56:15;;;;;;;16.85;11.20;;;;;;;31.73;45.90;100505.72;5053160;28;20037;-74
2021/07/23 05:59:20;;;;;;;14.45;11.52;;;;;;;32.55;44.08;100498.31;5052456;28;20049;-75
2021/07/23 06:02:24;;;;;;;12.23;10.82;;;;;;;34.16;40.82;100496.47;5053314;28;20037;-74
2021/07/23 06:05:28;;;;;;;14.02;11.00;;;;;;;34.12;40.33;100495.38;5052686;28;20053;-76
2021/07/23 06:08:33;;;;;;;15.27;10.52;;;;;;;35.23;38.27;100501.06;5052631;28;20033;-75
2021/07/23 06:11:38;;;;;;;17.00;10.05;;;;;;;35.03;38.73;100502.06;5053742;28;20364;-75
2021/07/23 06:14:43;;;;;;;13.88;10.45;;;;;;;34.81;38.70;100498.88;5041725;28;20049;-75
2021/07/23 06:17:48;;;;;;;14.60;9.73;;;;;;;34.48;40.02;100502.41;5033589;28;20388;-75
2021/07/23 06:20:52;;;;;;;17.70;9.45;;;;;;;36.70;35.88;100505.69;5052761;28;20055;-75
2021/07/23 06:23:57;;;;;;;16.80;10.05;;;;;;;36.72;35.73;100511.81;5053243;28;20048;-75
2021/07/23 06:27:01;;;;;;;10.75;9.40;;;;;;;36.59;35.98;100510.63;5053656;28;20045;-75
2021/07/23 06:30:06;;;;;;;10.02;9.00;;;;;;;37.39;34.85;100510.44;5052814;28;20060;-74
2021/07/23 06:33:10;;;;;;;14.38;9.07;;;;;;;37.83;33.83;100504.28;5053159;28;20048;-75
2021/07/23 06:36:15;;;;;;;12.35;8.57;;;;;;;36.49;36.25;100511.59;5053357;28;20072;-73
2021/07/23 06:39:19;;;;;;;14.52;10.30;;;;;;;34.15;39.88;100517.09;5053426;28;20095;-78
2021/07/23 06:42:24;;;;;;;12.55;11.15;;;;;;;32.40;43.68;100511.31;5053359;28;20049;-74
2021/07/23 06:45:29;;;;;;;13.98;9.88;;;;;;;35.43;38.07;100509.19;5052233;28;20037;-77
2021/07/23 06:48:36;;;;;;;14.57;9.38;;;;;;;36.72;35.58;100504.25;5052746;28;20052;-77
2021/07/23 06:51:40;;;;;;;12.98;9.07;;;;;;;37.75;33.37;100501.03;5047087;28;20660;-74
2021/07/23 06:54:48;;;;;;;13.45;9.63;;;;;;;38.68;32.33;100499.63;5041121;28;20068;-72
2021/07/23 06:57:53;;;;;;;13.20;8.48;;;;;;;38.71;32.02;100509.38;5052452;28;20531;-73
2021/07/23 07:01:06;;;;;;;10.15;7.25;;;;;;;39.60;31.62;100511.03;5044368;28;20064;-76
2021/07/23 07:04:10;;;;;;;13.85;8.65;;;;;;;38.64;32.64;100506.19;5051657;28;20044;-75
2021/07/23 07:07:16;;;;;;;14.65;8.30;;;;;;;39.92;30.83;100515.50;5028984;28;20052;-75
2021/07/23 07:10:21;;;;;;;13.30;8.10;;;;;;;40.21;30.29;100507.31;5052155;28;20507;-75
2021/07/23 07:13:25;;;;;;;11.95;7.82;;;;;;;40.52;30.03;100498.78;5054439;28;20701;-75
2021/07/23 07:16:30;;;;;;;15.38;8.60;;;;;;;40.86;29.12;100510.03;5037334;28;20045;-75
2021/07/23 07:19:35;;;;;;;14.18;7.35;;;;;;;40.68;29.19;100516.00;5042835;28;20503;-75
2021/07/23 07:22:39;;;;;;;14.73;7.20;;;;;;;41.57;28.54;100501.16;5056035;28;20052;-75
2021/07/23 07:25:44;;;;;;;11.20;7.40;;;;;;;43.73;26.08;100505.69;5053889;28;20074;-74
2021/07/23 07:28:50;;;;;;;8.68;6.35;;;;;;;44.95;24.62;100510.88;5055050;28;20055;-75
2021/07/23 07:31:55;;;;;;;10.65;6.45;;;;;;;46.63;22.76;100503.47;5054761;28;20048;-75
2021/07/23 07:34:59;;;;;;;7.00;6.03;;;;;;;46.93;22.85;100505.41;5055274;28;20390;-75
2021/07/23 07:38:03;;;;;;;12.55;6.43;;;;;;;45.51;24.06;100503.13;5054956;28;20052;-74
2021/07/23 07:41:08;;;;;;;12.18;6.30;;;;;;;47.92;21.64;100500.78;5041131;28;20498;-75
2021/07/23 07:44:12;;;;;;;14.27;6.20;;;;;;;49.21;21.53;100498.16;5054351;28;20095;-76
2021/07/23 07:47:17;;;;;;;8.48;5.68;;;;;;;48.74;21.04;100495.94;5053572;28;20071;-76
2021/07/23 07:50:21;;;;;;;10.35;5.95;;;;;;;46.97;22.63;100486.38;5054006;28;20048;-76
2021/07/23 07:53:25;;;;;;;8.77;5.82;;;;;;;50.07;19.86;100495.75;5042692;28;20044;-72
2021/07/23 07:56:30;;;;;;;12.63;6.53;;;;;;;49.27;20.98;100492.94;5050550;28;20399;-73
2021/07/23 07:59:35;;;;;;;7.53;5.50;;;;;;;49.94;20.22;100497.28;5054461;28;20056;-74
2021/07/23 08:02:40;;;;;;;10.85;5.07;;;;;;;48.28;21.27;100491.59;5055409;28;20052;-74
2021/07/23 08:05:45;;;;;;;8.40;5.70;;;;;;;46.18;23.11;100493.53;5055083;28;20056;-74
2021/07/23 08:08:50;;;;;;;7.18;5.25;;;;;;;46.51;22.17;100481.72;5055312;28;20047;-73
2021/07/23 08:11:56;;;;;;;9.38;5.00;;;;;;;47.06;22.11;100484.13;5054279;28;20068;-72
2021/07/23 08:15:01;;;;;;;7.40;5.07;;;;;;;46.72;22.54;100487.06;5052731;28;20075;-75
2021/07/23 08:18:06;;;;;;;7.20;5.20;;;;;;;47.10;22.30;100484.22;5054589;28;20044;-74
2021/07/23 08:21:11;;;;;;;8.35;5.78;;;;;;;44.94;23.64;100478.03;5053955;28;20471;-71
2021/07/23 08:24:16;;;;;;;11.32;6.20;;;;;;;46.14;23.64;100486.13;5054361;28;20435;-75
2021/07/23 08:27:21;;;;;;;8.95;5.40;;;;;;;45.36;24.22;100480.44;5053607;28;20060;-75
2021/07/23 08:30:26;;;;;;;10.27;5.90;;;;;;;42.55;26.02;100474.25;5054384;28;20076;-73
2021/07/23 08:33:30;;;;;;;8.05;6.40;;;;;;;38.69;31.43;100480.81;5054533;28;20060;-74
2021/07/23 08:36:36;;;;;;;14.18;6.60;;;;;;;36.33;34.67;100484.97;5054454;28;20056;-76
2021/07/23 08:39:42;;;;;;;9.13;5.93;;;;;;;35.24;36.63;100478.41;5051924;28;20044;-76
2021/07/23 08:42:47;;;;;;;10.48;6.85;;;;;;;34.71;37.62;100470.22;5053253;28;20403;-73
2021/07/23 08:45:52;;;;;;;9.88;7.35;;;;;;;34.72;38.26;100477.44;5054171;28;20056;-75
2021/07/23 08:48:58;;;;;;;9.57;7.55;;;;;;;34.79;38.23;100477.97;5053809;28;20045;-75
2021/07/23 08:52:03;;;;;;;14.18;7.45;;;;;;;35.44;37.25;100470.94;5054184;28;20064;-74
2021/07/23 08:55:10;;;;;;;9.07;7.20;;;;;;;35.29;37.91;100472.78;5053810;28;20056;-74
2021/07/23 08:58:15;;;;;;;16.52;10.48;;;;;;;33.96;42.00;100475.06;5053950;28;20051;-74
2021/07/23 09:01:21;;;;;;;11.00;8.00;;;;;;;34.16;40.94;100479.75;5038117;28;20042;-73
2021/07/23 09:04:35;;;;;;;10.75;7.47;;;;;;;34.38;39.53;100474.59;5033123;28;20080;-73
2021/07/23 09:07:40;;;;;;;12.13;7.85;;;;;;;34.71;39.31;100482.22;5042249;28;20522;-74
2021/07/23 09:10:45;;;;;;;13.77;8.27;;;;;;;34.17;40.30;100476.66;5053212;28;20060;-73
2021/07/23 09:13:50;;;;;;;15.23;9.32;;;;;;;33.14;42.32;100469.97;5053604;28;20056;-74
2021/07/23 09:16:57;;;;;;;14.48;9.02;;;;;;;33.05;42.16;100485.59;5053745;28;20498;-74
2021/07/23 09:20:03;;;;;;;13.15;9.05;;;;;;;33.15;42.01;100477.22;5053641;28;20120;-74
2021/07/23 09:23:08;;;;;;;15.00;10.00;;;;;;;32.81;42.77;100484.44;5053663;28;20048;-74
2021/07/23 09:26:18;;;;;;;14.15;8.60;;;;;;;32.51;43.41;100483.31;5052727;28;20048;-76
2021/07/23 09:29:23;;;;;;;24.85;9.73;;;;;;;32.57;43.85;100473.84;5053722;28;20063;-74
2021/07/23 09:32:28;;;;;;;14.00;8.88;;;;;;;32.78;42.79;100483.91;5052572;28;20052;-75
2021/07/23 09:35:32;;;;;;;15.27;8.65;;;;;;;33.47;42.35;100482.44;5052456;28;20072;-78
2021/07/23 09:38:44;;;;;;;12.88;9.85;;;;;;;33.35;42.09;100478.03;5053587;28;20403;-74
2021/07/23 09:42:01;;;;;;;13.10;8.68;;;;;;;33.58;41.64;100484.16;5053209;28;20048;-75
2021/07/23 09:45:05;;;;;;;20.75;10.52;;;;;;;33.49;43.07;100481.06;5053629;28;20159;-75
2021/07/23 09:48:12;;;;;;;12.32;8.45;;;;;;;33.66;41.42;100475.19;5052844;28;20033;-74
2021/07/23 09:51:16;;;;;;;12.32;9.07;;;;;;;33.01;42.85;100476.09;5053403;28;20060;-73
2021/07/23 09:54:22;;;;;;;12.40;9.93;;;;;;;32.86;42.66;100467.75;5051635;28;20052;-74
2021/07/23 09:57:30;;;;;;;18.15;10.52;;;;;;;33.13;42.70;100468.34;5053065;28;20052;-74
2021/07/23 10:00:41;;;;;;;16.33;9.98;;;;;;;33.01;42.86;100473.31;5052701;28;20053;-75
2021/07/23 10:03:49;;;;;;;16.00;9.80;;;;;;;33.20;42.39;100464.16;5052464;28;20159;-74
2021/07/23 10:07:04;;;;;;;13.32;9.90;;;;;;;33.17;42.92;100464.69;5052312;28;20396;-74
2021/07/23 10:10:13;;;;;;;15.90;10.68;;;;;;;32.42;43.46;100462.66;5051580;28;20466;-75
2021/07/23 10:13:28;;;;;;;11.27;10.00;;;;;;;32.34;43.44;100454.06;5052187;28;20484;-75
2021/07/23 10:16:34;;;;;;;11.48;9.32;;;;;;;32.51;43.51;100449.13;5051893;28;20049;-75
2021/07/23 10:19:40;;;;;;;17.52;10.30;;;;;;;32.59;43.79;100446.59;5052287;28;20510;-75
2021/07/23 10:22:50;;;;;;;10.95;9.77;;;;;;;32.65;43.58;100445.50;5053115;28;20045;-74
2021/07/23 10:25:57;;;;;;;17.35;10.00;;;;;;;32.66;43.37;100441.63;5052343;28;20055;-76
2021/07/23 10:29:03;;;;;;;16.83;11.68;;;;;;;32.37;44.10;100437.66;5052254;28;20057;-76
2021/07/23 10:32:31;;;;;;;16.10;9.63;;;;;;;32.55;44.22;100426.03;5052752;28;20044;-76
2021/07/23 10:35:37;;;;;;;12.70;9.73;;;;;;;32.68;43.93;100424.66;5052166;28;20056;-74
2021/07/23 10:38:41;;;;;;;13.85;9.73;;;;;;;32.34;43.83;100418.78;5052971;28;20044;-75
2021/07/23 10:41:45;;;;;;;14.00;9.15;;;;;;;32.32;43.86;100414.59;5052995;28;20151;-75
2021/07/23 10:44:53;;;;;;;15.68;9.70;;;;;;;32.59;43.65;100410.47;5052948;28;20048;-75
2021/07/23 10:47:58;;;;;;;13.20;9.98;;;;;;;32.35;44.42;100403.75;5043616;28;20056;-75
2021/07/23 10:51:02;;;;;;;13.20;9.98;;;;;;;32.10;44.29;100406.47;5032695;28;20048;-75
2021/07/23 10:54:06;;;;;;;11.10;9.10;;;;;;;32.25;43.78;100398.19;5032446;28;20068;-75
2021/07/23 10:57:12;;;;;;;14.68;10.50;;;;;;;32.27;44.46;100395.16;5043715;28;20052;-74
2021/07/23 11:01:03;;;;;;;11.95;10.35;;;;;;;32.17;45.54;100392.34;5032343;28;20044;-76
2021/07/23 11:04:18;;;;;;;15.38;10.10;;;;;;;32.13;45.67;100389.28;5054961;28;20045;-74
2021/07/23 11:07:24;;;;;;;13.77;10.23;;;;;;;32.01;45.74;100381.22;5032543;28;20053;-74
2021/07/23 11:10:30;;;;;;;19.15;10.90;;;;;;;32.16;44.88;100377.63;5043041;28;20041;-76
2021/07/23 11:13:35;;;;;;;15.00;9.65;;;;;;;32.36;45.33;100376.81;5030679;28;20041;-74
2021/07/23 11:16:39;;;;;;;16.42;10.77;;;;;;;32.16;45.22;100366.50;5032267;28;20052;-75
2021/07/23 11:19:49;;;;;;;20.88;10.52;;;;;;;31.98;45.92;100361.47;5043794;28;20040;-76
2021/07/23 11:22:53;;;;;;;18.20;9.98;;;;;;;32.08;45.42;100359.56;5043716;28;20041;-75
2021/07/23 11:25:58;;;;;;;14.38;8.32;;;;;;;32.30;44.65;100353.72;5032150;28;20060;-75
2021/07/23 11:29:02;;;;;;;13.02;8.95;;;;;;;32.18;45.11;100344.84;5032397;28;20060;-74
2021/07/23 11:32:12;;;;;;;13.63;9.10;;;;;;;32.06;45.24;100349.81;5043421;28;20052;-74
2021/07/23 11:35:17;;;;;;;13.35;8.63;;;;;;;32.15;44.53;100342.59;5043405;28;20071;-75
2021/07/23 11:38:22;;;;;;;12.88;7.60;;;;;;;32.29;43.58;100332.63;5031928;28;20052;-76
2021/07/23 11:41:26;;;;;;;11.07;7.88;;;;;;;32.28;43.46;100339.28;5032127;28;20056;-74
2021/07/23 11:44:32;;;;;;;15.65;8.55;;;;;;;32.39;44.26;100332.63;5043038;28;20060;-73
2021/07/23 11:47:38;;;;;;;11.30;8.32;;;;;;;32.21;44.22;100327.63;5042971;28;20052;-75
2021/07/23 11:50:54;;;;;;;13.98;8.45;;;;;;;32.36;44.22;100321.22;5032068;28;20495;-74
2021/07/23 11:53:58;;;;;;;11.73;8.15;;;;;;;32.37;44.54;100328.47;5031573;28;20392;-73
2021/07/23 11:57:04;;;;;;;13.35;8.52;;;;;;;32.09;45.10;100330.69;5042770;28;20052;-73
2021/07/23 12:00:21;;;;;;;14.35;9.40;;;;;;;31.95;44.75;100335.03;5030140;28;20250;-75
2021/07/23 12:03:28;;;;;;;13.68;9.25;;;;;;;32.19;44.40;100324.28;5032601;28;20053;-74
2021/07/23 12:06:36;;;;;;;13.45;8.85;;;;;;;32.03;44.30;100319.81;5033051;28;20508;-75
2021/07/23 12:09:42;;;;;;;12.70;7.90;;;;;;;32.15;44.68;100312.03;5026081;28;20110;-77
2021/07/23 12:12:47;;;;;;;15.18;10.40;;;;;;;32.01;45.28;100313.72;5032025;28;20389;-75
2021/07/23 12:15:56;;;;;;;10.15;8.35;;;;;;;32.12;44.67;100316.22;5011004;28;20156;-76
2021/07/23 12:19:09;;;;;;;12.38;8.57;;;;;;;32.33;44.35;100307.88;5023410;28;20049;-73
2021/07/23 12:22:14;;;;;;;18.98;8.75;;;;;;;32.23;45.30;100303.16;5023115;28;20064;-75
2021/07/23 12:25:20;;;;;;;11.82;8.60;;;;;;;31.99;44.64;100310.38;5026892;28;20052;-75
2021/07/23 12:28:24;;;;;;;14.55;8.40;;;;;;;31.99;45.00;100307.59;5053239;28;20063;-73
2021/07/23 12:31:28;;;;;;;10.15;7.43;;;;;;;32.20;42.89;100298.16;5054925;28;20056;-76
2021/07/23 12:34:34;;;;;;;11.30;8.10;;;;;;;32.26;42.97;100283.16;5054034;28;20056;-76
2021/07/23 12:37:39;;;;;;;12.75;8.10;;;;;;;32.23;44.43;100289.25;5051109;28;20111;-76
2021/07/23 12:40:45;;;;;;;11.25;8.73;;;;;;;32.06;45.24;100285.94;5053621;28;20052;-76
2021/07/23 12:44:06;;;;;;;15.40;8.65;;;;;;;32.21;44.98;100276.75;5033794;28;20547;-76
2021/07/23 12:47:21;;;;;;;12.60;8.35;;;;;;;32.25;44.08;100281.47;5051088;28;20068;-77
2021/07/23 12:50:26;;;;;;;15.05;8.90;;;;;;;32.32;44.30;100284.81;5033588;28;20052;-76
2021/07/23 12:53:34;;;;;;;15.25;9.18;;;;;;;32.38;44.17;100275.38;5051979;28;20052;-76
2021/07/23 12:56:43;;;;;;;14.20;7.47;;;;;;;32.33;43.98;100272.59;5053649;28;20060;-75
2021/07/23 12:59:49;;;;;;;11.00;7.30;;;;;;;32.42;44.10;100268.13;5054028;28;20052;-76
2021/07/23 13:02:56;;;;;;;12.10;8.13;;;;;;;32.65;43.59;100270.34;5052957;28;20051;-76
2021/07/23 13:06:01;;;;;;;10.27;7.00;;;;;;;32.60;43.89;100266.75;5053725;28;20048;-73
2021/07/23 13:09:06;;;;;;;14.77;8.13;;;;;;;32.43;43.30;100261.47;5053546;28;20400;-73
2021/07/23 13:12:18;;;;;;;18.80;8.50;;;;;;;32.41;43.51;100258.13;5052843;28;20518;-76
2021/07/23 13:15:22;;;;;;;12.48;7.95;;;;;;;32.49;43.41;100253.97;5053821;28;20400;-76
2021/07/23 13:18:26;;;;;;;11.85;7.63;;;;;;;32.53;43.76;100249.53;5053764;28;20060;-76
2021/07/23 13:21:31;;;;;;;10.38;8.52;;;;;;;32.53;43.33;100244.81;5053850;28;20052;-75
2021/07/23 13:24:36;;;;;;;11.07;7.68;;;;;;;32.46;43.75;100243.41;5053996;28;20502;-76
2021/07/23 13:27:43;;;;;;;12.18;7.57;;;;;;;32.51;43.23;100224.81;5053663;28;20396;-76
2021/07/23 13:30:48;;;;;;;12.55;8.05;;;;;;;32.52;43.24;100226.44;5053906;28;20155;-74
2021/07/23 13:33:53;;;;;;;9.63;7.45;;;;;;;32.61;43.02;100221.16;5048149;28;20056;-75
2021/07/23 13:37:11;;;;;;;10.65;7.78;;;;;;;32.61;43.40;100227.56;5052877;28;20056;-75
2021/07/23 13:40:19;;;;;;;13.43;7.75;;;;;;;32.77;42.71;100212.47;5053414;28;20059;-75
2021/07/23 13:43:23;;;;;;;16.05;8.13;;;;;;;32.64;43.55;100207.50;5053578;28;20060;-75
2021/07/23 13:46:27;;;;;;;13.52;7.55;;;;;;;32.68;43.31;100210.56;5053291;28;20071;-74
2021/07/23 13:49:32;;;;;;;10.63;8.82;;;;;;;32.84;43.47;100208.56;5029954;28;20052;-75
2021/07/23 13:52:40;;;;;;;13.98;8.27;;;;;;;32.89;43.46;100197.44;5053397;28;20056;-75
2021/07/23 13:55:44;;;;;;;9.77;8.13;;;;;;;32.76;43.76;100199.69;5052291;28;20503;-75
2021/07/23 13:58:49;;;;;;;10.80;7.07;;;;;;;32.92;43.30;100189.31;5053151;28;20056;-74
2021/07/23 14:01:54;;;;;;;11.02;7.25;;;;;;;33.05;42.94;100194.31;5052415;28;20048;-74
2021/07/23 14:04:59;;;;;;;12.00;7.75;;;;;;;33.15;42.60;100190.63;5053212;28;20052;-74
2021/07/23 14:08:03;;;;;;;10.75;7.20;;;;;;;33.18;42.63;100185.31;5052537;28;20052;-74
2021/07/23 14:11:08;;;;;;;10.90;7.80;;;;;;;33.01;42.82;100195.16;5053209;28;20052;-74
2021/07/23 14:14:13;;;;;;;10.98;7.90;;;;;;;32.77;43.20;100201.34;5053042;28;20052;-75